»·PEaware :: AAL2072 KABQ-KPHX

AAL2072 :: KABQ-KPHX

FLIGHT INFORMATION

Flight Status: Arrived
Operator:
American Airlines
More flights by this operator :: More flights under this callsign
Pilot: Jac C. (16067)
Aircraft: AIRBUS A319
(A319)
More flights by this aircraft type
Origin: KABQ Albuquerque Intl Sunport
United States
Destination: KPHX Phoenix Sky Harbor Intl
United States
More flights between these airports :: More routes between these airports
Route: +RDRNR3 ZUN EAGUL6
File this flight plan on PilotEdge
Remarks: PBN / A1B1C1D1O1S1 DOF / 181128 REG / N319SB OPR / AAL PER / C RMK / TCAS SIMBRIEF
Altitude:
(Current/Filed)
38,000ft
Speed:
(Current/Filed)
452kts
Departed: 27-Nov-18 06:12 PM
Arrived: 27-Nov-18 07:07 PM
Distance/Time
Traveled:
284nm/0:55
Distance/Time
To Go:
Arrived

Flight Plot

Page will automatically refresh every two minutes.


Map Options




Map Legend


Flown Route
Filed Route
Departure Airport
Arrival Airport
Navaid (VOR, NDB)
Fix

Horizontal Profiles

Position Reports

Time Latitude Longitude Heading Altitude Ground
Speed
27-Nov-18 17:44 35.047824 -106.617660 184 5321ft 0kts
27-Nov-18 17:45 35.047824 -106.617660 184 5321ft 0kts
27-Nov-18 17:46 35.047824 -106.617660 184 5321ft 0kts
27-Nov-18 17:47 35.047824 -106.617660 184 5321ft 0kts
27-Nov-18 17:48 35.047824 -106.617660 184 5321ft 0kts
27-Nov-18 17:49 35.047824 -106.617660 184 5321ft 0kts
27-Nov-18 17:50 35.047824 -106.617660 184 5321ft 0kts
27-Nov-18 17:51 35.047824 -106.617660 184 5321ft 0kts
27-Nov-18 17:52 35.047824 -106.617660 184 5321ft 0kts
27-Nov-18 17:53 35.047824 -106.617660 184 5321ft 0kts
27-Nov-18 17:54 35.047824 -106.617660 184 5321ft 0kts
27-Nov-18 17:55 35.047824 -106.617660 184 5321ft 0kts
27-Nov-18 17:56 35.047824 -106.617660 184 5321ft 0kts
27-Nov-18 17:57 35.047824 -106.617660 184 5321ft 0kts
27-Nov-18 17:58 35.047824 -106.617660 184 5321ft 0kts
27-Nov-18 17:59 35.047824 -106.617660 184 5321ft 0kts
27-Nov-18 18:00 35.047824 -106.617660 184 5321ft 0kts
27-Nov-18 18:01 35.047824 -106.617660 184 5321ft 0kts
27-Nov-18 18:02 35.048124 -106.617669 178 5321ft 2kts
27-Nov-18 18:03 35.048539 -106.617697 194 5321ft 2kts
27-Nov-18 18:04 35.048416 -106.618463 271 5321ft 0kts
27-Nov-18 18:05 35.048416 -106.618463 271 5321ft 0kts
27-Nov-18 18:06 35.048416 -106.618463 271 5321ft 0kts
27-Nov-18 18:07 35.048416 -106.618463 271 5321ft 0kts
27-Nov-18 18:08 35.048416 -106.618463 271 5321ft 0kts
27-Nov-18 18:09 35.048416 -106.618463 271 5321ft 0kts
27-Nov-18 18:10 35.048416 -106.618463 271 5321ft 0kts
27-Nov-18 18:11 35.048428 -106.618526 279 5321ft 1kts
27-Nov-18 18:12 35.047288 -106.619562 180 5321ft 10kts
27-Nov-18 18:13 35.045354 -106.621355 207 5321ft 5kts
27-Nov-18 18:14 35.044780 -106.621402 181 5321ft 6kts
27-Nov-18 18:15 35.044263 -106.610299 89 5321ft 123kts
27-Nov-18 18:16 35.043652 -106.551575 103 7051ft 187kts
27-Nov-18 18:17 35.077235 -106.512565 332 8658ft 226kts
27-Nov-18 18:18 35.093009 -106.587978 269 10620ft 275kts
27-Nov-18 18:19 35.091852 -106.690449 271 13161ft 315kts
27-Nov-18 18:20 35.096996 -106.796401 281 15865ft 330kts
27-Nov-18 18:21 35.108196 -106.906808 266 18285ft 343kts
27-Nov-18 18:22 35.086942 -107.021996 257 20548ft 356kts
27-Nov-18 18:23 35.063096 -107.140727 257 22582ft 367kts
27-Nov-18 18:24 35.040050 -107.262989 262 24435ft 376kts
27-Nov-18 18:25 35.033628 -107.391056 267 26079ft 386kts
27-Nov-18 18:26 35.029404 -107.522304 267 27586ft 395kts
27-Nov-18 18:27 35.024967 -107.656883 267 28938ft 403kts
27-Nov-18 18:28 35.020497 -107.789007 267 30140ft 411kts
27-Nov-18 18:29 35.015612 -107.928688 267 31222ft 418kts
27-Nov-18 18:30 35.010479 -108.070426 267 32221ft 423kts
27-Nov-18 18:31 35.005175 -108.212530 266 33422ft 419kts
27-Nov-18 18:32 34.999744 -108.353429 266 34460ft 417kts
27-Nov-18 18:33 34.994179 -108.493630 266 35352ft 415kts
27-Nov-18 18:34 34.988473 -108.633311 267 36111ft 414kts
27-Nov-18 18:35 34.982926 -108.765746 266 36717ft 414kts
27-Nov-18 18:36 34.976906 -108.905594 266 37254ft 414kts
27-Nov-18 18:37 34.970687 -109.045136 266 37712ft 415kts
27-Nov-18 18:38 34.950516 -109.183200 255 38072ft 417kts
27-Nov-18 18:39 34.907021 -109.314967 248 38176ft 422kts
27-Nov-18 18:40 34.859951 -109.443221 248 38176ft 423kts
27-Nov-18 18:41 34.812211 -109.573519 248 38178ft 423kts
27-Nov-18 18:42 34.769523 -109.689430 247 38138ft 420kts
27-Nov-18 18:43 34.722923 -109.815527 248 36274ft 411kts
27-Nov-18 18:44 34.675993 -109.941585 247 34907ft 415kts
27-Nov-18 18:45 34.628430 -110.069059 248 33925ft 417kts
27-Nov-18 18:46 34.580608 -110.196917 247 32947ft 420kts
27-Nov-18 18:47 34.532802 -110.324310 247 32106ft 418kts
27-Nov-18 18:48 34.484538 -110.452259 247 31358ft 414kts
27-Nov-18 18:49 34.437275 -110.576852 247 31313ft 403kts
27-Nov-18 18:50 34.393161 -110.693178 247 30768ft 400kts
27-Nov-18 18:51 34.342468 -110.806462 235 28822ft 398kts
27-Nov-18 18:52 34.269349 -110.904871 229 26736ft 395kts
27-Nov-18 18:53 34.195258 -111.000677 230 24591ft 389kts
27-Nov-18 18:54 34.122421 -111.094540 230 22523ft 381kts
27-Nov-18 18:55 34.052204 -111.184679 230 20779ft 367kts
27-Nov-18 18:56 33.985089 -111.270719 230 19160ft 353kts
27-Nov-18 18:57 33.919414 -111.354708 229 17463ft 343kts
27-Nov-18 18:58 33.851685 -111.428874 218 15518ft 340kts
27-Nov-18 18:59 33.777020 -111.493056 217 12904ft 323kts
27-Nov-18 19:00 33.709673 -111.550928 217 10918ft 291kts
27-Nov-18 19:01 33.644985 -111.606434 217 8637ft 276kts
27-Nov-18 19:02 33.589956 -111.652532 216 7966ft 225kts
27-Nov-18 19:03 33.540571 -111.694246 216 6743ft 216kts
27-Nov-18 19:04 33.494766 -111.732967 216 5661ft 198kts
27-Nov-18 19:05 33.456964 -111.778232 241 4356ft 195kts
27-Nov-18 19:06 33.441004 -111.836924 269 3668ft 191kts
27-Nov-18 19:07 33.440723 -111.892932 270 2739ft 148kts
27-Nov-18 19:08 33.440759 -111.941050 269 2008ft 146kts
27-Nov-18 19:09 33.440790 -111.989145 270 1200ft 143kts
27-Nov-18 19:10 33.440820 -112.016190 257 1118ft 19kts
27-Nov-18 19:11 33.439752 -112.013452 90 1118ft 17kts
27-Nov-18 19:12 33.439745 -112.007306 89 1118ft 19kts
27-Nov-18 19:13 33.439721 -112.001036 112 1118ft 11kts
27-Nov-18 19:14 33.437001 -112.000536 180 1118ft 3kts
27-Nov-18 19:15 33.436842 -112.001311 270 1118ft 0kts

Navigation Log

Ident Type
Flight plan parsing failed, navigation log unavailable